sensor_id;sensor_type;location;lat;lon;timestamp;P1;durP1;ratioP1;P2;durP2;ratioP2
4365;SDS011;2196;47.422;9.656;2023-01-23T00:02:19;12.20;;;8.33;;
4365;SDS011;2196;47.422;9.656;2023-01-23T00:04:46;11.60;;;9.40;;
4365;SDS011;2196;47.422;9.656;2023-01-23T00:07:16;11.93;;;7.87;;
4365;SDS011;2196;47.422;9.656;2023-01-23T00:09:43;9.37;;;7.03;;
4365;SDS011;2196;47.422;9.656;2023-01-23T00:12:11;11.63;;;8.27;;
4365;SDS011;2196;47.422;9.656;2023-01-23T00:14:38;9.53;;;7.63;;
4365;SDS011;2196;47.422;9.656;2023-01-23T00:17:05;8.50;;;6.47;;
4365;SDS011;2196;47.422;9.656;2023-01-23T00:19:32;11.27;;;7.23;;
4365;SDS011;2196;47.422;9.656;2023-01-23T00:21:59;10.83;;;7.43;;
4365;SDS011;2196;47.422;9.656;2023-01-23T00:24:26;10.73;;;7.27;;
4365;SDS011;2196;47.422;9.656;2023-01-23T00:26:54;10.30;;;7.67;;
4365;SDS011;2196;47.422;9.656;2023-01-23T00:29:22;11.30;;;7.07;;
4365;SDS011;2196;47.422;9.656;2023-01-23T00:31:49;9.70;;;7.20;;
4365;SDS011;2196;47.422;9.656;2023-01-23T00:34:16;8.73;;;5.73;;
4365;SDS011;2196;47.422;9.656;2023-01-23T00:36:43;10.13;;;7.67;;
4365;SDS011;2196;47.422;9.656;2023-01-23T00:39:12;10.87;;;8.17;;
4365;SDS011;2196;47.422;9.656;2023-01-23T00:41:41;13.50;;;8.90;;
4365;SDS011;2196;47.422;9.656;2023-01-23T00:44:08;9.50;;;7.63;;
4365;SDS011;2196;47.422;9.656;2023-01-23T00:46:36;9.53;;;7.40;;
4365;SDS011;2196;47.422;9.656;2023-01-23T00:49:03;9.80;;;7.30;;
4365;SDS011;2196;47.422;9.656;2023-01-23T00:51:31;9.90;;;7.60;;
4365;SDS011;2196;47.422;9.656;2023-01-23T00:53:58;13.07;;;9.47;;
4365;SDS011;2196;47.422;9.656;2023-01-23T00:56:25;13.70;;;9.33;;
4365;SDS011;2196;47.422;9.656;2023-01-23T00:58:54;13.90;;;9.97;;
4365;SDS011;2196;47.422;9.656;2023-01-23T01:01:21;14.80;;;10.37;;
4365;SDS011;2196;47.422;9.656;2023-01-23T01:03:49;13.10;;;8.03;;
4365;SDS011;2196;47.422;9.656;2023-01-23T01:06:16;12.90;;;8.50;;
4365;SDS011;2196;47.422;9.656;2023-01-23T01:08:43;10.90;;;8.43;;
4365;SDS011;2196;47.422;9.656;2023-01-23T01:11:10;14.67;;;10.13;;
4365;SDS011;2196;47.422;9.656;2023-01-23T01:13:37;12.43;;;8.67;;
4365;SDS011;2196;47.422;9.656;2023-01-23T01:16:05;13.30;;;9.83;;
4365;SDS011;2196;47.422;9.656;2023-01-23T01:18:33;12.93;;;8.40;;
4365;SDS011;2196;47.422;9.656;2023-01-23T01:21:04;14.03;;;9.33;;
4365;SDS011;2196;47.422;9.656;2023-01-23T01:23:31;13.90;;;8.23;;
4365;SDS011;2196;47.422;9.656;2023-01-23T01:25:59;12.37;;;8.00;;
4365;SDS011;2196;47.422;9.656;2023-01-23T01:28:26;13.57;;;8.07;;
4365;SDS011;2196;47.422;9.656;2023-01-23T01:30:54;14.33;;;8.67;;
4365;SDS011;2196;47.422;9.656;2023-01-23T01:33:21;12.43;;;7.57;;
4365;SDS011;2196;47.422;9.656;2023-01-23T01:35:49;12.73;;;9.23;;
4365;SDS011;2196;47.422;9.656;2023-01-23T01:38:18;11.73;;;8.07;;
4365;SDS011;2196;47.422;9.656;2023-01-23T01:40:45;11.73;;;8.70;;
4365;SDS011;2196;47.422;9.656;2023-01-23T01:43:16;15.67;;;9.70;;
4365;SDS011;2196;47.422;9.656;2023-01-23T01:46:04;14.47;;;8.93;;
4365;SDS011;2196;47.422;9.656;2023-01-23T01:48:34;11.67;;;8.20;;
4365;SDS011;2196;47.422;9.656;2023-01-23T01:51:04;15.03;;;10.77;;
4365;SDS011;2196;47.422;9.656;2023-01-23T01:53:36;13.37;;;8.93;;
4365;SDS011;2196;47.422;9.656;2023-01-23T01:56:04;16.23;;;9.40;;
4365;SDS011;2196;47.422;9.656;2023-01-23T01:58:32;12.90;;;8.80;;
4365;SDS011;2196;47.422;9.656;2023-01-23T02:00:59;13.87;;;9.37;;
4365;SDS011;2196;47.422;9.656;2023-01-23T02:03:26;13.53;;;8.67;;
4365;SDS011;2196;47.422;9.656;2023-01-23T02:05:53;16.60;;;10.07;;
4365;SDS011;2196;47.422;9.656;2023-01-23T02:08:21;16.37;;;10.37;;
4365;SDS011;2196;47.422;9.656;2023-01-23T02:10:53;13.67;;;9.60;;
4365;SDS011;2196;47.422;9.656;2023-01-23T02:13:22;16.73;;;10.47;;
4365;SDS011;2196;47.422;9.656;2023-01-23T02:15:54;17.67;;;11.03;;
4365;SDS011;2196;47.422;9.656;2023-01-23T02:18:22;17.57;;;11.27;;
4365;SDS011;2196;47.422;9.656;2023-01-23T02:20:51;16.03;;;10.83;;
4365;SDS011;2196;47.422;9.656;2023-01-23T02:23:21;17.00;;;10.60;;
4365;SDS011;2196;47.422;9.656;2023-01-23T02:25:59;15.57;;;10.53;;
4365;SDS011;2196;47.422;9.656;2023-01-23T02:28:39;19.03;;;10.83;;
4365;SDS011;2196;47.422;9.656;2023-01-23T02:31:07;18.97;;;11.20;;
4365;SDS011;2196;47.422;9.656;2023-01-23T02:33:49;18.60;;;11.43;;
4365;SDS011;2196;47.422;9.656;2023-01-23T02:36:18;19.30;;;12.07;;
4365;SDS011;2196;47.422;9.656;2023-01-23T02:38:48;24.33;;;12.60;;
4365;SDS011;2196;47.422;9.656;2023-01-23T02:41:22;17.47;;;10.67;;
4365;SDS011;2196;47.422;9.656;2023-01-23T02:43:52;20.03;;;11.53;;
4365;SDS011;2196;47.422;9.656;2023-01-23T02:46:22;20.63;;;11.97;;
4365;SDS011;2196;47.422;9.656;2023-01-23T02:48:49;22.23;;;12.13;;
4365;SDS011;2196;47.422;9.656;2023-01-23T02:51:16;19.70;;;10.90;;
4365;SDS011;2196;47.422;9.656;2023-01-23T02:53:45;21.90;;;12.90;;
4365;SDS011;2196;47.422;9.656;2023-01-23T02:56:12;23.57;;;12.47;;
4365;SDS011;2196;47.422;9.656;2023-01-23T02:58:41;19.67;;;12.87;;
4365;SDS011;2196;47.422;9.656;2023-01-23T03:01:25;19.40;;;11.33;;
4365;SDS011;2196;47.422;9.656;2023-01-23T03:03:52;20.70;;;12.43;;
4365;SDS011;2196;47.422;9.656;2023-01-23T03:06:21;21.63;;;12.53;;
4365;SDS011;2196;47.422;9.656;2023-01-23T03:08:48;21.93;;;12.57;;
4365;SDS011;2196;47.422;9.656;2023-01-23T03:11:16;19.77;;;12.90;;
4365;SDS011;2196;47.422;9.656;2023-01-23T03:13:45;23.87;;;12.63;;
4365;SDS011;2196;47.422;9.656;2023-01-23T03:16:13;20.70;;;12.93;;
4365;SDS011;2196;47.422;9.656;2023-01-23T03:18:40;17.70;;;10.97;;
4365;SDS011;2196;47.422;9.656;2023-01-23T03:21:07;19.67;;;12.00;;
4365;SDS011;2196;47.422;9.656;2023-01-23T03:23:36;22.20;;;12.03;;
4365;SDS011;2196;47.422;9.656;2023-01-23T03:26:06;21.50;;;11.83;;
4365;SDS011;2196;47.422;9.656;2023-01-23T03:28:32;20.97;;;12.73;;
4365;SDS011;2196;47.422;9.656;2023-01-23T03:31:18;19.47;;;12.03;;
4365;SDS011;2196;47.422;9.656;2023-01-23T03:33:45;22.90;;;13.03;;
4365;SDS011;2196;47.422;9.656;2023-01-23T03:36:12;21.00;;;12.40;;
4365;SDS011;2196;47.422;9.656;2023-01-23T03:38:40;19.30;;;11.77;;
4365;SDS011;2196;47.422;9.656;2023-01-23T03:41:27;16.50;;;11.67;;
4365;SDS011;2196;47.422;9.656;2023-01-23T03:43:54;22.33;;;11.77;;
4365;SDS011;2196;47.422;9.656;2023-01-23T03:46:22;20.53;;;12.17;;
4365;SDS011;2196;47.422;9.656;2023-01-23T03:48:49;21.10;;;11.93;;
4365;SDS011;2196;47.422;9.656;2023-01-23T03:51:16;18.40;;;11.37;;
4365;SDS011;2196;47.422;9.656;2023-01-23T03:53:43;19.60;;;11.57;;
4365;SDS011;2196;47.422;9.656;2023-01-23T03:56:10;18.87;;;11.93;;
4365;SDS011;2196;47.422;9.656;2023-01-23T03:58:37;20.70;;;11.73;;
4365;SDS011;2196;47.422;9.656;2023-01-23T04:01:05;20.53;;;12.17;;
4365;SDS011;2196;47.422;9.656;2023-01-23T04:03:35;23.03;;;12.73;;
4365;SDS011;2196;47.422;9.656;2023-01-23T04:06:01;18.63;;;12.30;;
4365;SDS011;2196;47.422;9.656;2023-01-23T04:08:29;20.90;;;12.00;;
4365;SDS011;2196;47.422;9.656;2023-01-23T04:11:03;18.80;;;10.90;;
4365;SDS011;2196;47.422;9.656;2023-01-23T04:13:31;16.07;;;10.77;;
4365;SDS011;2196;47.422;9.656;2023-01-23T04:15:58;18.80;;;12.07;;
4365;SDS011;2196;47.422;9.656;2023-01-23T04:18:25;19.60;;;11.30;;
4365;SDS011;2196;47.422;9.656;2023-01-23T04:20:54;18.87;;;12.50;;
4365;SDS011;2196;47.422;9.656;2023-01-23T04:23:21;18.83;;;11.17;;
4365;SDS011;2196;47.422;9.656;2023-01-23T04:25:49;18.83;;;12.13;;
4365;SDS011;2196;47.422;9.656;2023-01-23T04:28:16;18.60;;;11.73;;
4365;SDS011;2196;47.422;9.656;2023-01-23T04:30:43;20.87;;;11.27;;
4365;SDS011;2196;47.422;9.656;2023-01-23T04:33:11;15.47;;;10.27;;
4365;SDS011;2196;47.422;9.656;2023-01-23T04:35:38;17.37;;;10.67;;
4365;SDS011;2196;47.422;9.656;2023-01-23T04:38:06;16.50;;;10.37;;
4365;SDS011;2196;47.422;9.656;2023-01-23T04:40:33;14.97;;;10.23;;
4365;SDS011;2196;47.422;9.656;2023-01-23T04:43:00;17.93;;;11.40;;
4365;SDS011;2196;47.422;9.656;2023-01-23T04:45:27;14.87;;;8.57;;
4365;SDS011;2196;47.422;9.656;2023-01-23T04:47:54;14.67;;;10.13;;
4365;SDS011;2196;47.422;9.656;2023-01-23T04:50:21;18.37;;;11.13;;
4365;SDS011;2196;47.422;9.656;2023-01-23T04:52:48;16.13;;;10.80;;
4365;SDS011;2196;47.422;9.656;2023-01-23T04:55:17;14.63;;;8.77;;
4365;SDS011;2196;47.422;9.656;2023-01-23T04:57:44;17.87;;;11.67;;
4365;SDS011;2196;47.422;9.656;2023-01-23T05:00:11;16.50;;;9.27;;
4365;SDS011;2196;47.422;9.656;2023-01-23T05:02:38;15.93;;;9.30;;
4365;SDS011;2196;47.422;9.656;2023-01-23T05:05:06;15.80;;;10.00;;
4365;SDS011;2196;47.422;9.656;2023-01-23T05:07:33;15.87;;;9.63;;
4365;SDS011;2196;47.422;9.656;2023-01-23T05:10:00;14.90;;;10.27;;
4365;SDS011;2196;47.422;9.656;2023-01-23T05:12:29;16.10;;;10.20;;
4365;SDS011;2196;47.422;9.656;2023-01-23T05:14:56;17.13;;;9.57;;
4365;SDS011;2196;47.422;9.656;2023-01-23T05:17:23;15.07;;;10.20;;
4365;SDS011;2196;47.422;9.656;2023-01-23T05:19:50;16.07;;;9.80;;
4365;SDS011;2196;47.422;9.656;2023-01-23T05:22:17;20.37;;;10.90;;
4365;SDS011;2196;47.422;9.656;2023-01-23T05:24:44;12.70;;;9.87;;
4365;SDS011;2196;47.422;9.656;2023-01-23T05:27:15;13.73;;;9.10;;
4365;SDS011;2196;47.422;9.656;2023-01-23T05:29:43;16.53;;;9.83;;
4365;SDS011;2196;47.422;9.656;2023-01-23T05:32:10;19.23;;;10.23;;
4365;SDS011;2196;47.422;9.656;2023-01-23T05:34:37;13.30;;;9.37;;
4365;SDS011;2196;47.422;9.656;2023-01-23T05:37:06;16.03;;;10.53;;
4365;SDS011;2196;47.422;9.656;2023-01-23T05:39:33;14.97;;;8.27;;
4365;SDS011;2196;47.422;9.656;2023-01-23T05:42:00;14.37;;;9.00;;
4365;SDS011;2196;47.422;9.656;2023-01-23T05:44:27;14.10;;;8.17;;
4365;SDS011;2196;47.422;9.656;2023-01-23T05:46:56;13.73;;;8.90;;
4365;SDS011;2196;47.422;9.656;2023-01-23T05:49:23;11.60;;;7.70;;
4365;SDS011;2196;47.422;9.656;2023-01-23T05:51:50;13.67;;;8.17;;
4365;SDS011;2196;47.422;9.656;2023-01-23T05:54:17;15.30;;;8.93;;
4365;SDS011;2196;47.422;9.656;2023-01-23T05:56:44;13.67;;;8.53;;
4365;SDS011;2196;47.422;9.656;2023-01-23T05:59:11;13.90;;;8.93;;
4365;SDS011;2196;47.422;9.656;2023-01-23T06:01:37;11.13;;;8.10;;
4365;SDS011;2196;47.422;9.656;2023-01-23T06:04:06;15.03;;;8.87;;
4365;SDS011;2196;47.422;9.656;2023-01-23T06:06:33;13.23;;;9.80;;
4365;SDS011;2196;47.422;9.656;2023-01-23T06:09:00;12.47;;;8.13;;
4365;SDS011;2196;47.422;9.656;2023-01-23T06:11:27;12.77;;;8.37;;
4365;SDS011;2196;47.422;9.656;2023-01-23T06:13:54;13.03;;;8.23;;
4365;SDS011;2196;47.422;9.656;2023-01-23T06:16:21;13.23;;;8.00;;
4365;SDS011;2196;47.422;9.656;2023-01-23T06:18:48;16.50;;;10.03;;
4365;SDS011;2196;47.422;9.656;2023-01-23T06:21:16;12.17;;;7.73;;
4365;SDS011;2196;47.422;9.656;2023-01-23T06:23:43;11.30;;;8.00;;
4365;SDS011;2196;47.422;9.656;2023-01-23T06:26:11;12.67;;;8.10;;
4365;SDS011;2196;47.422;9.656;2023-01-23T06:28:39;12.03;;;7.87;;
4365;SDS011;2196;47.422;9.656;2023-01-23T06:31:06;13.47;;;7.73;;
4365;SDS011;2196;47.422;9.656;2023-01-23T06:33:34;10.93;;;7.80;;
4365;SDS011;2196;47.422;9.656;2023-01-23T06:36:02;13.67;;;8.07;;
4365;SDS011;2196;47.422;9.656;2023-01-23T06:38:32;10.23;;;6.93;;
4365;SDS011;2196;47.422;9.656;2023-01-23T06:40:59;13.63;;;7.93;;
4365;SDS011;2196;47.422;9.656;2023-01-23T06:43:26;13.83;;;9.70;;
4365;SDS011;2196;47.422;9.656;2023-01-23T06:45:54;13.77;;;9.20;;
4365;SDS011;2196;47.422;9.656;2023-01-23T06:48:21;15.60;;;9.00;;
4365;SDS011;2196;47.422;9.656;2023-01-23T06:50:48;14.63;;;9.10;;
4365;SDS011;2196;47.422;9.656;2023-01-23T06:53:15;12.50;;;7.90;;
4365;SDS011;2196;47.422;9.656;2023-01-23T06:55:44;9.37;;;7.17;;
4365;SDS011;2196;47.422;9.656;2023-01-23T06:58:11;11.47;;;8.27;;
4365;SDS011;2196;47.422;9.656;2023-01-23T07:00:38;13.33;;;7.27;;
4365;SDS011;2196;47.422;9.656;2023-01-23T07:03:09;13.33;;;7.73;;
4365;SDS011;2196;47.422;9.656;2023-01-23T07:05:36;14.17;;;8.37;;
4365;SDS011;2196;47.422;9.656;2023-01-23T07:08:05;11.70;;;7.53;;
4365;SDS011;2196;47.422;9.656;2023-01-23T07:10:32;16.40;;;9.67;;
4365;SDS011;2196;47.422;9.656;2023-01-23T07:13:03;17.00;;;10.60;;
4365;SDS011;2196;47.422;9.656;2023-01-23T07:15:30;15.17;;;9.13;;
4365;SDS011;2196;47.422;9.656;2023-01-23T07:17:57;12.70;;;8.10;;
4365;SDS011;2196;47.422;9.656;2023-01-23T07:20:25;12.33;;;7.77;;
4365;SDS011;2196;47.422;9.656;2023-01-23T07:22:52;13.47;;;8.20;;
4365;SDS011;2196;47.422;9.656;2023-01-23T07:25:19;12.97;;;8.40;;
4365;SDS011;2196;47.422;9.656;2023-01-23T07:27:47;10.07;;;7.70;;
4365;SDS011;2196;47.422;9.656;2023-01-23T07:30:16;11.10;;;6.90;;
4365;SDS011;2196;47.422;9.656;2023-01-23T07:32:43;12.23;;;7.47;;
4365;SDS011;2196;47.422;9.656;2023-01-23T07:35:10;13.27;;;8.13;;
4365;SDS011;2196;47.422;9.656;2023-01-23T07:37:37;16.63;;;9.23;;
4365;SDS011;2196;47.422;9.656;2023-01-23T07:40:04;16.13;;;8.30;;
4365;SDS011;2196;47.422;9.656;2023-01-23T07:42:32;13.83;;;8.73;;
4365;SDS011;2196;47.422;9.656;2023-01-23T07:44:59;15.47;;;9.03;;
4365;SDS011;2196;47.422;9.656;2023-01-23T07:47:27;14.50;;;9.30;;
4365;SDS011;2196;47.422;9.656;2023-01-23T07:49:54;13.20;;;9.17;;
4365;SDS011;2196;47.422;9.656;2023-01-23T07:52:21;13.40;;;9.77;;
4365;SDS011;2196;47.422;9.656;2023-01-23T07:54:48;17.17;;;9.13;;
4365;SDS011;2196;47.422;9.656;2023-01-23T07:57:15;12.83;;;8.73;;
4365;SDS011;2196;47.422;9.656;2023-01-23T07:59:42;14.23;;;9.40;;
4365;SDS011;2196;47.422;9.656;2023-01-23T08:02:09;16.73;;;8.53;;
4365;SDS011;2196;47.422;9.656;2023-01-23T08:04:38;10.97;;;7.93;;
4365;SDS011;2196;47.422;9.656;2023-01-23T08:07:05;12.97;;;7.87;;
4365;SDS011;2196;47.422;9.656;2023-01-23T08:09:32;12.80;;;8.47;;
4365;SDS011;2196;47.422;9.656;2023-01-23T08:11:58;15.73;;;9.27;;
4365;SDS011;2196;47.422;9.656;2023-01-23T08:14:25;15.43;;;9.93;;
4365;SDS011;2196;47.422;9.656;2023-01-23T08:16:52;13.97;;;8.67;;
4365;SDS011;2196;47.422;9.656;2023-01-23T08:19:19;14.07;;;8.57;;
4365;SDS011;2196;47.422;9.656;2023-01-23T08:21:50;17.67;;;8.90;;
4365;SDS011;2196;47.422;9.656;2023-01-23T08:24:18;14.67;;;9.07;;
4365;SDS011;2196;47.422;9.656;2023-01-23T08:26:45;13.63;;;8.77;;
4365;SDS011;2196;47.422;9.656;2023-01-23T08:29:12;12.27;;;8.03;;
4365;SDS011;2196;47.422;9.656;2023-01-23T08:31:39;13.90;;;8.73;;
4365;SDS011;2196;47.422;9.656;2023-01-23T08:34:06;13.90;;;8.47;;
4365;SDS011;2196;47.422;9.656;2023-01-23T08:36:33;11.70;;;7.97;;
4365;SDS011;2196;47.422;9.656;2023-01-23T08:39:01;17.07;;;9.77;;
4365;SDS011;2196;47.422;9.656;2023-01-23T08:41:29;9.67;;;7.00;;
4365;SDS011;2196;47.422;9.656;2023-01-23T08:43:56;17.37;;;10.47;;
4365;SDS011;2196;47.422;9.656;2023-01-23T08:46:26;16.40;;;9.90;;
4365;SDS011;2196;47.422;9.656;2023-01-23T08:48:55;28.67;;;13.93;;
4365;SDS011;2196;47.422;9.656;2023-01-23T08:51:22;32.10;;;15.47;;
4365;SDS011;2196;47.422;9.656;2023-01-23T08:53:51;17.97;;;10.40;;
4365;SDS011;2196;47.422;9.656;2023-01-23T08:56:20;18.13;;;10.13;;
4365;SDS011;2196;47.422;9.656;2023-01-23T08:58:49;14.40;;;9.47;;
4365;SDS011;2196;47.422;9.656;2023-01-23T09:01:16;17.90;;;9.13;;
4365;SDS011;2196;47.422;9.656;2023-01-23T09:03:44;15.00;;;9.53;;
4365;SDS011;2196;47.422;9.656;2023-01-23T09:06:12;12.73;;;8.50;;
4365;SDS011;2196;47.422;9.656;2023-01-23T09:08:40;16.33;;;9.70;;
4365;SDS011;2196;47.422;9.656;2023-01-23T09:11:08;14.50;;;8.77;;
4365;SDS011;2196;47.422;9.656;2023-01-23T09:13:37;15.07;;;9.67;;
4365;SDS011;2196;47.422;9.656;2023-01-23T09:16:05;16.37;;;10.47;;
4365;SDS011;2196;47.422;9.656;2023-01-23T09:18:33;16.27;;;9.20;;
4365;SDS011;2196;47.422;9.656;2023-01-23T09:21:04;15.40;;;9.73;;
4365;SDS011;2196;47.422;9.656;2023-01-23T09:23:32;20.83;;;12.33;;
4365;SDS011;2196;47.422;9.656;2023-01-23T09:26:03;17.27;;;11.03;;
4365;SDS011;2196;47.422;9.656;2023-01-23T09:28:31;14.83;;;9.40;;
4365;SDS011;2196;47.422;9.656;2023-01-23T09:31:02;11.97;;;8.10;;
4365;SDS011;2196;47.422;9.656;2023-01-23T09:33:31;13.23;;;7.20;;
4365;SDS011;2196;47.422;9.656;2023-01-23T09:35:58;10.40;;;7.50;;
4365;SDS011;2196;47.422;9.656;2023-01-23T09:38:25;14.37;;;8.30;;
4365;SDS011;2196;47.422;9.656;2023-01-23T09:40:53;15.20;;;7.90;;
4365;SDS011;2196;47.422;9.656;2023-01-23T09:43:22;13.93;;;8.97;;
4365;SDS011;2196;47.422;9.656;2023-01-23T09:45:55;23.00;;;14.43;;
4365;SDS011;2196;47.422;9.656;2023-01-23T09:48:28;13.30;;;8.47;;
4365;SDS011;2196;47.422;9.656;2023-01-23T09:50:59;15.20;;;9.27;;
4365;SDS011;2196;47.422;9.656;2023-01-23T09:53:33;16.47;;;9.60;;
4365;SDS011;2196;47.422;9.656;2023-01-23T09:56:03;14.37;;;9.13;;
4365;SDS011;2196;47.422;9.656;2023-01-23T09:58:40;11.43;;;8.37;;
4365;SDS011;2196;47.422;9.656;2023-01-23T10:01:12;14.80;;;10.00;;
4365;SDS011;2196;47.422;9.656;2023-01-23T10:03:41;12.63;;;9.50;;
4365;SDS011;2196;47.422;9.656;2023-01-23T10:06:13;16.87;;;10.50;;
4365;SDS011;2196;47.422;9.656;2023-01-23T10:08:49;15.00;;;8.63;;
4365;SDS011;2196;47.422;9.656;2023-01-23T10:11:36;18.07;;;11.60;;
4365;SDS011;2196;47.422;9.656;2023-01-23T10:14:17;13.90;;;9.97;;
4365;SDS011;2196;47.422;9.656;2023-01-23T10:17:05;15.37;;;10.13;;
4365;SDS011;2196;47.422;9.656;2023-01-23T10:19:52;13.43;;;9.33;;
4365;SDS011;2196;47.422;9.656;2023-01-23T10:22:43;15.10;;;9.40;;
4365;SDS011;2196;47.422;9.656;2023-01-23T10:25:17;16.50;;;10.83;;
4365;SDS011;2196;47.422;9.656;2023-01-23T10:27:47;14.50;;;9.13;;
4365;SDS011;2196;47.422;9.656;2023-01-23T10:30:18;14.53;;;9.43;;
4365;SDS011;2196;47.422;9.656;2023-01-23T10:32:49;14.00;;;9.07;;
4365;SDS011;2196;47.422;9.656;2023-01-23T10:35:22;13.00;;;9.37;;
4365;SDS011;2196;47.422;9.656;2023-01-23T10:37:59;16.07;;;10.73;;
4365;SDS011;2196;47.422;9.656;2023-01-23T10:40:27;14.57;;;11.07;;
4365;SDS011;2196;47.422;9.656;2023-01-23T10:43:12;12.77;;;9.23;;
4365;SDS011;2196;47.422;9.656;2023-01-23T10:45:41;14.83;;;9.60;;
4365;SDS011;2196;47.422;9.656;2023-01-23T10:48:27;20.30;;;10.50;;
4365;SDS011;2196;47.422;9.656;2023-01-23T10:53:59;11.07;;;9.53;;
4365;SDS011;2196;47.422;9.656;2023-01-23T10:56:27;16.27;;;9.60;;
4365;SDS011;2196;47.422;9.656;2023-01-23T10:58:55;14.60;;;9.13;;
4365;SDS011;2196;47.422;9.656;2023-01-23T11:01:26;15.17;;;11.10;;
4365;SDS011;2196;47.422;9.656;2023-01-23T11:03:55;15.20;;;10.10;;
4365;SDS011;2196;47.422;9.656;2023-01-23T11:06:23;15.17;;;10.00;;
4365;SDS011;2196;47.422;9.656;2023-01-23T11:08:54;16.43;;;10.40;;
4365;SDS011;2196;47.422;9.656;2023-01-23T11:11:23;18.10;;;12.00;;
4365;SDS011;2196;47.422;9.656;2023-01-23T11:14:02;16.20;;;10.90;;
4365;SDS011;2196;47.422;9.656;2023-01-23T11:16:33;13.17;;;9.80;;
4365;SDS011;2196;47.422;9.656;2023-01-23T11:19:10;17.27;;;10.80;;
4365;SDS011;2196;47.422;9.656;2023-01-23T11:21:50;14.70;;;9.60;;
4365;SDS011;2196;47.422;9.656;2023-01-23T11:24:30;12.87;;;9.00;;
4365;SDS011;2196;47.422;9.656;2023-01-23T11:27:00;15.40;;;10.07;;
4365;SDS011;2196;47.422;9.656;2023-01-23T11:29:41;12.50;;;9.77;;
4365;SDS011;2196;47.422;9.656;2023-01-23T11:32:26;12.70;;;8.40;;
4365;SDS011;2196;47.422;9.656;2023-01-23T11:35:01;14.20;;;9.67;;
4365;SDS011;2196;47.422;9.656;2023-01-23T11:37:36;15.20;;;10.07;;
4365;SDS011;2196;47.422;9.656;2023-01-23T11:40:09;13.83;;;10.33;;
4365;SDS011;2196;47.422;9.656;2023-01-23T11:42:39;15.33;;;10.27;;
4365;SDS011;2196;47.422;9.656;2023-01-23T11:45:11;15.10;;;10.77;;
4365;SDS011;2196;47.422;9.656;2023-01-23T11:47:43;16.53;;;9.83;;
4365;SDS011;2196;47.422;9.656;2023-01-23T11:50:35;13.13;;;9.77;;
4365;SDS011;2196;47.422;9.656;2023-01-23T11:53:11;16.07;;;10.03;;
4365;SDS011;2196;47.422;9.656;2023-01-23T11:55:52;13.93;;;9.17;;
4365;SDS011;2196;47.422;9.656;2023-01-23T12:01:21;13.83;;;10.17;;
4365;SDS011;2196;47.422;9.656;2023-01-23T12:04:00;14.87;;;9.83;;
4365;SDS011;2196;47.422;9.656;2023-01-23T12:09:53;16.10;;;10.53;;
4365;SDS011;2196;47.422;9.656;2023-01-23T12:12:35;14.53;;;10.37;;
4365;SDS011;2196;47.422;9.656;2023-01-23T12:15:17;14.50;;;10.70;;
4365;SDS011;2196;47.422;9.656;2023-01-23T12:17:57;14.90;;;10.23;;
4365;SDS011;2196;47.422;9.656;2023-01-23T12:20:34;12.07;;;8.90;;
4365;SDS011;2196;47.422;9.656;2023-01-23T12:23:10;15.63;;;9.80;;
4365;SDS011;2196;47.422;9.656;2023-01-23T12:25:50;16.40;;;11.10;;
4365;SDS011;2196;47.422;9.656;2023-01-23T12:28:29;13.97;;;9.23;;
4365;SDS011;2196;47.422;9.656;2023-01-23T12:31:14;14.00;;;10.00;;
4365;SDS011;2196;47.422;9.656;2023-01-23T12:33:59;14.90;;;10.93;;
4365;SDS011;2196;47.422;9.656;2023-01-23T12:36:42;16.20;;;10.13;;
4365;SDS011;2196;47.422;9.656;2023-01-23T12:39:20;16.37;;;10.60;;
4365;SDS011;2196;47.422;9.656;2023-01-23T12:42:01;15.30;;;10.10;;
4365;SDS011;2196;47.422;9.656;2023-01-23T12:44:35;12.23;;;8.90;;
4365;SDS011;2196;47.422;9.656;2023-01-23T12:47:07;15.20;;;10.47;;
4365;SDS011;2196;47.422;9.656;2023-01-23T12:49:42;13.33;;;9.67;;
4365;SDS011;2196;47.422;9.656;2023-01-23T12:52:13;19.87;;;9.70;;
4365;SDS011;2196;47.422;9.656;2023-01-23T12:54:50;15.23;;;9.70;;
4365;SDS011;2196;47.422;9.656;2023-01-23T12:57:24;15.47;;;10.00;;
4365;SDS011;2196;47.422;9.656;2023-01-23T13:00:09;14.53;;;10.43;;
4365;SDS011;2196;47.422;9.656;2023-01-23T13:02:49;14.27;;;9.70;;
4365;SDS011;2196;47.422;9.656;2023-01-23T13:05:28;12.50;;;9.33;;
4365;SDS011;2196;47.422;9.656;2023-01-23T13:08:04;15.10;;;9.43;;
4365;SDS011;2196;47.422;9.656;2023-01-23T13:10:55;19.83;;;10.67;;
4365;SDS011;2196;47.422;9.656;2023-01-23T13:13:45;16.00;;;10.13;;
4365;SDS011;2196;47.422;9.656;2023-01-23T13:16:14;15.37;;;10.40;;
4365;SDS011;2196;47.422;9.656;2023-01-23T13:18:50;17.90;;;10.27;;
4365;SDS011;2196;47.422;9.656;2023-01-23T13:21:36;19.90;;;12.63;;
4365;SDS011;2196;47.422;9.656;2023-01-23T13:24:28;12.47;;;8.77;;
4365;SDS011;2196;47.422;9.656;2023-01-23T13:27:35;16.20;;;9.03;;
4365;SDS011;2196;47.422;9.656;2023-01-23T13:30:04;12.10;;;8.10;;
4365;SDS011;2196;47.422;9.656;2023-01-23T13:32:47;12.93;;;9.10;;
4365;SDS011;2196;47.422;9.656;2023-01-23T13:38:27;17.13;;;10.30;;
4365;SDS011;2196;47.422;9.656;2023-01-23T13:44:00;17.33;;;9.50;;
4365;SDS011;2196;47.422;9.656;2023-01-23T13:46:35;16.13;;;8.57;;
4365;SDS011;2196;47.422;9.656;2023-01-23T13:49:15;16.30;;;10.30;;
4365;SDS011;2196;47.422;9.656;2023-01-23T13:52:20;16.00;;;10.13;;
4365;SDS011;2196;47.422;9.656;2023-01-23T13:55:13;15.27;;;10.00;;
4365;SDS011;2196;47.422;9.656;2023-01-23T13:58:00;10.87;;;8.90;;
4365;SDS011;2196;47.422;9.656;2023-01-23T14:00:28;13.50;;;8.93;;
4365;SDS011;2196;47.422;9.656;2023-01-23T14:02:57;13.83;;;8.40;;
4365;SDS011;2196;47.422;9.656;2023-01-23T14:06:02;14.90;;;9.77;;
4365;SDS011;2196;47.422;9.656;2023-01-23T14:08:30;17.93;;;11.07;;
4365;SDS011;2196;47.422;9.656;2023-01-23T14:10:57;16.20;;;10.63;;
4365;SDS011;2196;47.422;9.656;2023-01-23T14:13:24;15.30;;;9.97;;
4365;SDS011;2196;47.422;9.656;2023-01-23T14:15:52;16.40;;;9.97;;
4365;SDS011;2196;47.422;9.656;2023-01-23T14:18:36;15.43;;;10.07;;
4365;SDS011;2196;47.422;9.656;2023-01-23T14:21:13;13.80;;;10.00;;
4365;SDS011;2196;47.422;9.656;2023-01-23T14:23:43;14.57;;;9.67;;
4365;SDS011;2196;47.422;9.656;2023-01-23T14:26:14;11.93;;;9.03;;
4365;SDS011;2196;47.422;9.656;2023-01-23T14:28:50;18.63;;;10.10;;
4365;SDS011;2196;47.422;9.656;2023-01-23T14:31:22;16.07;;;10.50;;
4365;SDS011;2196;47.422;9.656;2023-01-23T14:33:54;16.57;;;10.80;;
4365;SDS011;2196;47.422;9.656;2023-01-23T14:36:27;20.70;;;10.50;;
4365;SDS011;2196;47.422;9.656;2023-01-23T14:38:55;21.00;;;9.57;;
4365;SDS011;2196;47.422;9.656;2023-01-23T14:41:24;18.57;;;9.97;;
4365;SDS011;2196;47.422;9.656;2023-01-23T14:43:54;16.93;;;10.53;;
4365;SDS011;2196;47.422;9.656;2023-01-23T14:46:28;16.23;;;9.93;;
4365;SDS011;2196;47.422;9.656;2023-01-23T14:49:00;14.80;;;9.57;;
4365;SDS011;2196;47.422;9.656;2023-01-23T14:51:30;16.27;;;11.17;;
4365;SDS011;2196;47.422;9.656;2023-01-23T14:53:57;16.77;;;9.43;;
4365;SDS011;2196;47.422;9.656;2023-01-23T14:56:27;16.47;;;11.33;;
4365;SDS011;2196;47.422;9.656;2023-01-23T14:58:57;14.87;;;10.00;;
4365;SDS011;2196;47.422;9.656;2023-01-23T15:01:26;17.87;;;10.63;;
4365;SDS011;2196;47.422;9.656;2023-01-23T15:03:54;17.67;;;10.30;;
4365;SDS011;2196;47.422;9.656;2023-01-23T15:06:23;15.63;;;10.37;;
4365;SDS011;2196;47.422;9.656;2023-01-23T15:08:51;18.00;;;10.50;;
4365;SDS011;2196;47.422;9.656;2023-01-23T15:11:23;14.33;;;9.93;;
4365;SDS011;2196;47.422;9.656;2023-01-23T15:13:52;15.03;;;10.13;;
4365;SDS011;2196;47.422;9.656;2023-01-23T15:16:27;15.33;;;9.73;;
4365;SDS011;2196;47.422;9.656;2023-01-23T15:18:59;18.60;;;11.90;;
4365;SDS011;2196;47.422;9.656;2023-01-23T15:21:29;18.23;;;11.20;;
4365;SDS011;2196;47.422;9.656;2023-01-23T15:24:15;18.00;;;11.57;;
4365;SDS011;2196;47.422;9.656;2023-01-23T15:26:54;22.17;;;12.30;;
4365;SDS011;2196;47.422;9.656;2023-01-23T15:29:23;25.50;;;14.20;;
4365;SDS011;2196;47.422;9.656;2023-01-23T15:31:51;26.60;;;15.63;;
4365;SDS011;2196;47.422;9.656;2023-01-23T15:34:20;19.03;;;12.30;;